createdAt,value
2023-04-09T00:01:40.122Z,6.88
2023-04-09T00:05:52.845Z,6.30
2023-04-09T00:10:06.427Z,6.75
2023-04-09T00:14:18.713Z,6.15
2023-04-09T00:18:31.060Z,6.70
2023-04-09T00:22:43.598Z,7.13
2023-04-09T00:26:56.021Z,7.63
2023-04-09T00:31:08.567Z,8.55
2023-04-09T00:35:20.908Z,8.55
2023-04-09T00:39:33.329Z,9.18
2023-04-09T00:43:45.995Z,9.77
2023-04-09T00:47:58.669Z,8.70
2023-04-09T00:52:11.557Z,6.78
2023-04-09T00:56:25.248Z,5.57
2023-04-09T01:00:39.077Z,5.20
2023-04-09T01:04:51.697Z,5.55
2023-04-09T01:09:08.497Z,5.65
2023-04-09T01:14:10.694Z,5.35
2023-04-09T01:18:43.482Z,5.28
2023-04-09T01:23:07.944Z,5.57
2023-04-09T01:27:20.658Z,5.47
2023-04-09T01:31:44.572Z,5.57
2023-04-09T01:35:58.102Z,5.20
2023-04-09T01:40:11.057Z,5.07
2023-04-09T01:44:24.914Z,5.03
2023-04-09T01:48:40.744Z,5.13
2023-04-09T01:52:53.713Z,5.25
2023-04-09T01:57:06.267Z,5.30
2023-04-09T02:01:27.060Z,5.57
2023-04-09T02:05:44.905Z,5.80
2023-04-09T02:10:01.287Z,5.23
2023-04-09T02:14:13.982Z,5.90
2023-04-09T02:18:31.296Z,6.30
2023-04-09T02:22:43.740Z,5.97
2023-04-09T02:26:56.268Z,5.72
2023-04-09T02:31:08.590Z,5.38
2023-04-09T02:35:21.033Z,5.30
2023-04-09T02:39:33.574Z,5.30
2023-04-09T02:43:45.931Z,5.47
2023-04-09T02:47:58.356Z,4.80
2023-04-09T02:52:11.626Z,5.18
2023-04-09T02:56:24.298Z,4.80
2023-04-09T03:00:37.713Z,5.60
2023-04-09T03:04:50.126Z,5.38
2023-04-09T03:09:02.429Z,5.50
2023-04-09T03:13:16.246Z,5.72
2023-04-09T03:17:29.468Z,6.18
2023-04-09T03:21:41.915Z,6.00
2023-04-09T03:26:05.210Z,5.30
2023-04-09T03:34:37.345Z,4.68
2023-04-09T03:38:51.302Z,5.10
2023-04-09T03:43:12.143Z,4.70
2023-04-09T03:47:33.187Z,5.10
2023-04-09T03:51:46.119Z,5.30
2023-04-09T03:55:59.422Z,4.68
2023-04-09T04:00:12.898Z,4.45
2023-04-09T04:04:54.816Z,4.28
2023-04-09T04:09:09.741Z,4.80
2023-04-09T04:13:30.408Z,4.95
2023-04-09T04:17:43.972Z,5.32
2023-04-09T04:22:04.951Z,5.32
2023-04-09T04:26:21.224Z,4.45
2023-04-09T04:30:33.741Z,4.85
2023-04-09T04:34:52.490Z,6.72
2023-04-09T04:39:11.060Z,17.25
2023-04-09T04:43:43.976Z,14.85
2023-04-09T04:48:04.263Z,12.52
2023-04-09T04:52:17.875Z,15.73
2023-04-09T04:56:35.509Z,15.80
2023-04-09T05:00:55.029Z,16.92
2023-04-09T05:05:07.890Z,17.40
2023-04-09T05:09:26.051Z,16.48
2023-04-09T05:13:45.090Z,15.70
2023-04-09T05:17:58.556Z,14.82
2023-04-09T05:22:11.752Z,15.02
2023-04-09T05:26:24.822Z,13.90
2023-04-09T05:30:40.919Z,10.07
2023-04-09T05:34:54.454Z,10.00
2023-04-09T05:39:07.288Z,8.23
2023-04-09T05:43:19.624Z,9.32
2023-04-09T05:47:33.094Z,8.27
2023-04-09T05:51:54.497Z,8.10
2023-04-09T05:56:15.992Z,7.88
2023-04-09T06:00:38.300Z,7.20
2023-04-09T06:04:51.049Z,6.88
2023-04-09T06:09:03.996Z,6.50
2023-04-09T06:13:16.463Z,6.40
2023-04-09T06:17:30.983Z,5.78
2023-04-09T06:21:43.613Z,6.72
2023-04-09T06:25:56.180Z,6.45
2023-04-09T06:30:09.292Z,6.65
2023-04-09T06:34:21.709Z,6.65
2023-04-09T06:38:33.988Z,6.93
2023-04-09T06:42:47.867Z,6.85
2023-04-09T06:47:10.163Z,7.65
2023-04-09T06:51:22.506Z,13.18
2023-04-09T06:55:34.914Z,14.45
2023-04-09T06:59:47.285Z,13.40
2023-04-09T07:03:59.756Z,12.88
2023-04-09T07:08:12.781Z,11.52
2023-04-09T07:12:34.731Z,11.50
2023-04-09T07:16:47.156Z,13.48
2023-04-09T07:20:59.531Z,11.60
2023-04-09T07:25:12.916Z,12.23
2023-04-09T07:29:25.341Z,12.88
2023-04-09T07:33:38.065Z,12.90
2023-04-09T07:37:50.593Z,13.10
2023-04-09T07:42:04.692Z,12.10
2023-04-09T07:46:22.068Z,13.63
2023-04-09T07:50:34.716Z,10.65
2023-04-09T07:54:47.153Z,9.73
2023-04-09T07:58:59.668Z,15.30
2023-04-09T08:03:12.160Z,13.85
2023-04-09T08:07:24.866Z,15.40
2023-04-09T08:11:37.765Z,17.73
2023-04-09T08:15:50.151Z,15.65
2023-04-09T08:20:02.533Z,14.63
2023-04-09T08:24:17.009Z,12.45
2023-04-09T08:28:29.576Z,11.10
2023-04-09T08:32:42.045Z,9.38
2023-04-09T08:36:54.563Z,8.68
2023-04-09T08:41:07.145Z,7.55
2023-04-09T08:45:19.596Z,6.57
2023-04-09T08:49:32.060Z,6.35
2023-04-09T08:53:47.932Z,6.47
2023-04-09T08:58:00.779Z,6.82
2023-04-09T09:02:13.380Z,8.45
2023-04-09T09:06:28.955Z,9.63
2023-04-09T09:10:44.135Z,9.45
2023-04-09T09:14:56.714Z,11.32
2023-04-09T09:19:11.550Z,11.10
2023-04-09T09:23:39.458Z,12.15
2023-04-09T09:27:52.931Z,9.05
2023-04-09T09:32:14.029Z,8.35
2023-04-09T09:36:34.572Z,7.15
2023-04-09T09:40:48.055Z,7.43
2023-04-09T09:45:02.530Z,6.93
2023-04-09T09:49:15.021Z,6.45
2023-04-09T09:53:29.032Z,6.18
2023-04-09T09:57:45.142Z,6.20
2023-04-09T10:02:02.869Z,6.85
2023-04-09T10:06:16.193Z,7.20
2023-04-09T10:10:29.040Z,8.57
2023-04-09T10:14:43.039Z,10.25
2023-04-09T10:18:59.214Z,9.43
2023-04-09T10:23:35.938Z,12.02
2023-04-09T10:28:00.655Z,13.63
2023-04-09T10:32:14.196Z,14.50
2023-04-09T10:36:28.187Z,16.42
2023-04-09T10:40:58.681Z,18.13
2023-04-09T10:49:26.876Z,15.85
2023-04-09T10:53:39.297Z,14.30
2023-04-09T10:57:51.790Z,13.63
2023-04-09T11:02:10.063Z,14.77
2023-04-09T11:06:22.856Z,15.18
2023-04-09T11:10:36.051Z,14.32
2023-04-09T11:14:48.359Z,13.02
2023-04-09T11:19:00.836Z,13.40
2023-04-09T11:23:14.502Z,12.40
2023-04-09T11:27:27.000Z,13.43
2023-04-09T11:31:39.360Z,14.25
2023-04-09T11:35:51.929Z,15.45
2023-04-09T11:40:04.694Z,15.50
2023-04-09T11:44:17.244Z,14.10
2023-04-09T11:48:30.993Z,13.15
2023-04-09T11:52:45.036Z,13.50
2023-04-09T11:57:05.746Z,14.02
2023-04-09T12:01:18.316Z,12.82
2023-04-09T12:05:32.716Z,12.48
2023-04-09T12:09:49.365Z,11.50
2023-04-09T12:14:12.861Z,11.70
2023-04-09T12:18:25.262Z,12.45
2023-04-09T12:22:41.057Z,12.07
2023-04-09T12:26:53.415Z,12.35
2023-04-09T12:31:09.655Z,11.35
2023-04-09T12:35:23.397Z,10.45
2023-04-09T12:39:35.887Z,11.38
2023-04-09T12:43:49.309Z,11.88
2023-04-09T12:48:01.873Z,11.48
2023-04-09T12:52:14.301Z,11.80
2023-04-09T12:56:28.245Z,10.65
2023-04-09T13:00:42.361Z,14.23
2023-04-09T13:04:54.859Z,14.55
2023-04-09T13:09:07.285Z,11.82
2023-04-09T13:13:19.776Z,10.70
2023-04-09T13:17:32.197Z,9.98
2023-04-09T13:21:44.685Z,11.50
2023-04-09T13:25:57.146Z,14.25
2023-04-09T13:30:09.893Z,14.93
2023-04-09T13:34:22.221Z,11.70
2023-04-09T13:38:34.727Z,13.68
2023-04-09T13:42:47.259Z,12.07
2023-04-09T13:46:59.725Z,11.57
2023-04-09T13:51:12.315Z,11.32
2023-04-09T13:55:24.731Z,11.55
2023-04-09T13:59:42.004Z,13.60
2023-04-09T14:03:54.918Z,12.98
2023-04-09T14:08:07.689Z,12.45
2023-04-09T14:12:20.099Z,9.82
2023-04-09T14:16:32.693Z,9.35
2023-04-09T14:20:45.244Z,10.07
2023-04-09T14:24:57.731Z,11.43
2023-04-09T14:29:10.148Z,11.02
2023-04-09T14:33:22.586Z,10.20
2023-04-09T14:37:34.955Z,8.35
2023-04-09T14:41:47.584Z,10.23
2023-04-09T14:46:00.006Z,9.68
2023-04-09T14:50:13.122Z,8.48
2023-04-09T14:54:25.552Z,9.95
2023-04-09T14:58:38.379Z,9.55
2023-04-09T15:02:51.280Z,11.45
2023-04-09T15:07:03.807Z,11.15
2023-04-09T15:11:17.606Z,11.20
2023-04-09T15:15:30.168Z,10.02
2023-04-09T15:19:42.783Z,10.07
2023-04-09T15:23:56.673Z,9.68
2023-04-09T15:28:09.116Z,10.75
2023-04-09T15:32:22.009Z,11.32
2023-04-09T15:36:34.845Z,11.55
2023-04-09T15:40:47.757Z,13.70
2023-04-09T15:45:02.687Z,11.77
2023-04-09T15:49:15.346Z,11.68
2023-04-09T15:53:29.463Z,15.52
2023-04-09T15:57:46.929Z,14.45
2023-04-09T16:01:59.809Z,11.75
2023-04-09T16:06:14.968Z,10.63
2023-04-09T16:10:27.587Z,10.38
2023-04-09T16:14:40.676Z,12.07
2023-04-09T16:18:53.242Z,12.52
2023-04-09T16:23:05.751Z,13.10
2023-04-09T16:27:18.238Z,13.35
2023-04-09T16:31:30.855Z,12.15
2023-04-09T16:35:43.322Z,11.88
2023-04-09T16:39:57.290Z,11.55
2023-04-09T16:44:09.595Z,10.40
2023-04-09T16:48:22.100Z,10.50
2023-04-09T16:52:36.976Z,10.02
2023-04-09T16:56:51.154Z,10.10
2023-04-09T17:01:03.872Z,12.00
2023-04-09T17:05:18.123Z,11.88
2023-04-09T17:09:31.856Z,12.07
2023-04-09T17:13:44.420Z,13.75
2023-04-09T17:17:58.764Z,13.50
2023-04-09T17:22:11.559Z,14.77
2023-04-09T17:26:25.025Z,15.85
2023-04-09T17:30:37.571Z,14.75
2023-04-09T17:34:49.875Z,13.57
2023-04-09T17:39:02.666Z,15.20
2023-04-09T17:43:15.212Z,15.07
2023-04-09T17:47:27.562Z,16.08
2023-04-09T17:51:40.032Z,16.42
2023-04-09T17:55:52.485Z,15.73
2023-04-09T18:00:08.520Z,14.60
2023-04-09T18:04:32.053Z,16.92
2023-04-09T18:08:45.054Z,16.23
2023-04-09T18:12:59.716Z,17.63
2023-04-09T18:17:12.507Z,20.55
2023-04-09T18:21:26.016Z,21.00
2023-04-09T18:25:39.448Z,20.85
2023-04-09T18:29:52.558Z,20.25
2023-04-09T18:34:04.957Z,21.90
2023-04-09T18:38:18.936Z,23.80
2023-04-09T18:42:31.539Z,25.08
2023-04-09T18:46:44.083Z,26.83
2023-04-09T18:50:56.738Z,26.95
2023-04-09T18:55:09.740Z,25.58
2023-04-09T18:59:23.394Z,27.63
2023-04-09T19:03:36.132Z,27.08
2023-04-09T19:07:48.628Z,25.83
2023-04-09T19:12:02.143Z,25.83
2023-04-09T19:16:14.712Z,24.77
2023-04-09T19:20:27.413Z,24.00
2023-04-09T19:24:39.761Z,25.52
2023-04-09T19:28:52.958Z,29.50
2023-04-09T19:33:05.706Z,35.70
2023-04-09T19:37:19.365Z,34.40
2023-04-09T19:41:32.160Z,42.72
2023-04-09T19:45:44.688Z,34.33
2023-04-09T19:49:57.502Z,32.10
2023-04-09T19:54:11.060Z,32.60
2023-04-09T19:58:24.330Z,32.10
2023-04-09T20:02:38.046Z,29.70
2023-04-09T20:06:52.010Z,31.45
2023-04-09T20:11:04.961Z,34.50
2023-04-09T20:15:20.251Z,34.45
2023-04-09T20:19:32.840Z,31.25
2023-04-09T20:23:45.901Z,30.52
2023-04-09T20:27:58.348Z,33.20
2023-04-09T20:32:10.913Z,31.80
2023-04-09T20:36:23.513Z,33.60
2023-04-09T20:40:37.542Z,32.72
2023-04-09T20:44:50.099Z,28.77
2023-04-09T20:49:04.222Z,27.65
2023-04-09T20:53:18.233Z,24.23
2023-04-09T20:57:30.630Z,28.33
2023-04-09T21:01:43.246Z,26.85
2023-04-09T21:05:55.902Z,27.38
2023-04-09T21:10:09.053Z,26.42
2023-04-09T21:14:21.676Z,25.45
2023-04-09T21:18:34.091Z,25.15
2023-04-09T21:22:46.581Z,25.90
2023-04-09T21:26:59.867Z,25.20
2023-04-09T21:31:12.582Z,25.80
2023-04-09T21:35:25.218Z,25.77
2023-04-09T21:39:37.700Z,24.63
2023-04-09T21:43:50.126Z,24.88
2023-04-09T21:48:03.236Z,23.58
2023-04-09T21:52:15.781Z,23.38
2023-04-09T21:56:28.244Z,22.08
2023-04-09T22:00:40.982Z,21.65
2023-04-09T22:04:53.348Z,19.95
2023-04-09T22:09:09.110Z,20.27
2023-04-09T22:13:21.626Z,19.08
2023-04-09T22:17:34.087Z,19.83
2023-04-09T22:21:49.891Z,17.90
2023-04-09T22:26:03.829Z,16.38
2023-04-09T22:30:16.321Z,15.65
2023-04-09T22:34:28.729Z,16.30
2023-04-09T22:38:41.270Z,13.93
2023-04-09T22:42:53.708Z,12.35
2023-04-09T22:47:06.408Z,11.43
2023-04-09T22:51:18.815Z,10.20
2023-04-09T22:55:31.584Z,9.40
2023-04-09T22:59:44.078Z,9.90
2023-04-09T23:03:56.579Z,9.18
2023-04-09T23:08:09.958Z,9.32
2023-04-09T23:12:22.421Z,9.00
2023-04-09T23:16:34.772Z,7.72
2023-04-09T23:20:47.160Z,6.80
2023-04-09T23:24:59.559Z,7.05
2023-04-09T23:29:11.993Z,7.15
2023-04-09T23:33:24.486Z,7.13
2023-04-09T23:37:37.235Z,6.95
2023-04-09T23:41:49.669Z,6.25
2023-04-09T23:46:02.263Z,6.68
2023-04-09T23:50:14.545Z,7.28
2023-04-09T23:54:27.561Z,6.80
2023-04-09T23:58:40.044Z,6.35
